sensor_id;sensor_type;location;lat;lon;timestamp;P1;durP1;ratioP1;P2;durP2;ratioP2
24357;SDS011;13668;52.154;5.580;2022-07-23T00:01:43;3.28;;;2.97;;
24357;SDS011;13668;52.154;5.580;2022-07-23T00:04:09;3.25;;;2.65;;
24357;SDS011;13668;52.154;5.580;2022-07-23T00:06:34;5.88;;;2.90;;
24357;SDS011;13668;52.154;5.580;2022-07-23T00:09:00;3.70;;;2.83;;
24357;SDS011;13668;52.154;5.580;2022-07-23T00:11:26;3.38;;;2.60;;
24357;SDS011;13668;52.154;5.580;2022-07-23T00:13:52;3.10;;;2.90;;
24357;SDS011;13668;52.154;5.580;2022-07-23T00:16:19;4.95;;;3.00;;
24357;SDS011;13668;52.154;5.580;2022-07-23T00:18:45;3.28;;;2.72;;
24357;SDS011;13668;52.154;5.580;2022-07-23T00:21:11;3.17;;;2.88;;
24357;SDS011;13668;52.154;5.580;2022-07-23T00:23:37;3.35;;;2.60;;
24357;SDS011;13668;52.154;5.580;2022-07-23T00:26:03;3.65;;;3.33;;
24357;SDS011;13668;52.154;5.580;2022-07-23T00:28:32;3.60;;;2.97;;
24357;SDS011;13668;52.154;5.580;2022-07-23T00:30:58;3.70;;;2.80;;
24357;SDS011;13668;52.154;5.580;2022-07-23T00:33:24;4.20;;;2.92;;
24357;SDS011;13668;52.154;5.580;2022-07-23T00:35:50;3.30;;;3.00;;
24357;SDS011;13668;52.154;5.580;2022-07-23T00:38:16;3.13;;;2.83;;
24357;SDS011;13668;52.154;5.580;2022-07-23T00:40:42;2.60;;;2.40;;
24357;SDS011;13668;52.154;5.580;2022-07-23T00:43:08;3.42;;;3.10;;
24357;SDS011;13668;52.154;5.580;2022-07-23T00:45:34;3.20;;;2.90;;
24357;SDS011;13668;52.154;5.580;2022-07-23T00:48:00;3.22;;;3.03;;
24357;SDS011;13668;52.154;5.580;2022-07-23T00:50:26;4.05;;;3.50;;
24357;SDS011;13668;52.154;5.580;2022-07-23T00:52:52;4.28;;;3.40;;
24357;SDS011;13668;52.154;5.580;2022-07-23T00:55:18;4.15;;;3.47;;
24357;SDS011;13668;52.154;5.580;2022-07-23T00:57:44;3.45;;;3.22;;
24357;SDS011;13668;52.154;5.580;2022-07-23T01:00:12;5.03;;;3.63;;
24357;SDS011;13668;52.154;5.580;2022-07-23T01:02:38;4.10;;;3.70;;
24357;SDS011;13668;52.154;5.580;2022-07-23T01:05:04;5.05;;;3.65;;
24357;SDS011;13668;52.154;5.580;2022-07-23T01:07:30;6.28;;;3.50;;
24357;SDS011;13668;52.154;5.580;2022-07-23T01:09:56;4.05;;;3.20;;
24357;SDS011;13668;52.154;5.580;2022-07-23T01:12:23;3.88;;;3.45;;
24357;SDS011;13668;52.154;5.580;2022-07-23T01:14:55;3.47;;;3.00;;
24357;SDS011;13668;52.154;5.580;2022-07-23T01:17:21;4.43;;;3.50;;
24357;SDS011;13668;52.154;5.580;2022-07-23T01:19:47;5.60;;;3.33;;
24357;SDS011;13668;52.154;5.580;2022-07-23T01:22:14;3.42;;;3.13;;
24357;SDS011;13668;52.154;5.580;2022-07-23T01:24:40;3.80;;;3.50;;
24357;SDS011;13668;52.154;5.580;2022-07-23T01:27:06;4.78;;;4.18;;
24357;SDS011;13668;52.154;5.580;2022-07-23T01:29:32;5.78;;;3.72;;
24357;SDS011;13668;52.154;5.580;2022-07-23T01:31:58;3.78;;;3.28;;
24357;SDS011;13668;52.154;5.580;2022-07-23T01:34:24;3.65;;;3.20;;
24357;SDS011;13668;52.154;5.580;2022-07-23T01:36:50;3.58;;;3.28;;
24357;SDS011;13668;52.154;5.580;2022-07-23T01:39:16;4.35;;;3.58;;
24357;SDS011;13668;52.154;5.580;2022-07-23T01:41:42;3.55;;;3.03;;
24357;SDS011;13668;52.154;5.580;2022-07-23T01:44:08;3.72;;;3.42;;
24357;SDS011;13668;52.154;5.580;2022-07-23T01:46:34;4.10;;;3.70;;
24357;SDS011;13668;52.154;5.580;2022-07-23T01:49:00;4.15;;;3.75;;
24357;SDS011;13668;52.154;5.580;2022-07-23T01:51:26;5.00;;;3.55;;
24357;SDS011;13668;52.154;5.580;2022-07-23T01:53:52;4.07;;;3.67;;
24357;SDS011;13668;52.154;5.580;2022-07-23T01:56:21;3.80;;;3.50;;
24357;SDS011;13668;52.154;5.580;2022-07-23T01:58:47;3.97;;;3.60;;
24357;SDS011;13668;52.154;5.580;2022-07-23T02:01:13;4.55;;;3.78;;
24357;SDS011;13668;52.154;5.580;2022-07-23T02:03:39;4.03;;;3.72;;
24357;SDS011;13668;52.154;5.580;2022-07-23T02:06:05;4.07;;;3.38;;
24357;SDS011;13668;52.154;5.580;2022-07-23T02:08:34;5.80;;;3.80;;
24357;SDS011;13668;52.154;5.580;2022-07-23T02:11:00;4.43;;;4.03;;
24357;SDS011;13668;52.154;5.580;2022-07-23T02:13:26;4.13;;;3.63;;
24357;SDS011;13668;52.154;5.580;2022-07-23T02:15:53;4.00;;;3.53;;
24357;SDS011;13668;52.154;5.580;2022-07-23T02:18:19;4.05;;;3.30;;
24357;SDS011;13668;52.154;5.580;2022-07-23T02:20:45;4.50;;;3.55;;
24357;SDS011;13668;52.154;5.580;2022-07-23T02:23:11;4.82;;;4.10;;
24357;SDS011;13668;52.154;5.580;2022-07-23T02:25:37;4.15;;;3.30;;
24357;SDS011;13668;52.154;5.580;2022-07-23T02:28:04;5.60;;;4.20;;
24357;SDS011;13668;52.154;5.580;2022-07-23T02:30:30;4.50;;;4.10;;
24357;SDS011;13668;52.154;5.580;2022-07-23T02:32:56;5.65;;;4.88;;
24357;SDS011;13668;52.154;5.580;2022-07-23T02:35:22;6.03;;;4.07;;
24357;SDS011;13668;52.154;5.580;2022-07-23T02:37:48;5.32;;;4.63;;
24357;SDS011;13668;52.154;5.580;2022-07-23T02:40:15;6.07;;;4.65;;
24357;SDS011;13668;52.154;5.580;2022-07-23T02:42:41;5.28;;;4.60;;
24357;SDS011;13668;52.154;5.580;2022-07-23T02:45:07;4.47;;;4.18;;
24357;SDS011;13668;52.154;5.580;2022-07-23T02:47:33;4.75;;;4.43;;
24357;SDS011;13668;52.154;5.580;2022-07-23T02:49:59;4.55;;;4.25;;
24357;SDS011;13668;52.154;5.580;2022-07-23T02:52:25;6.35;;;4.55;;
24357;SDS011;13668;52.154;5.580;2022-07-23T02:54:51;4.57;;;3.88;;
24357;SDS011;13668;52.154;5.580;2022-07-23T02:57:17;4.32;;;3.92;;
24357;SDS011;13668;52.154;5.580;2022-07-23T02:59:43;4.30;;;3.90;;
24357;SDS011;13668;52.154;5.580;2022-07-23T03:02:09;4.68;;;4.03;;
24357;SDS011;13668;52.154;5.580;2022-07-23T03:04:34;5.15;;;3.97;;
24357;SDS011;13668;52.154;5.580;2022-07-23T03:07:00;4.75;;;4.07;;
24357;SDS011;13668;52.154;5.580;2022-07-23T03:09:26;5.18;;;3.85;;
24357;SDS011;13668;52.154;5.580;2022-07-23T03:11:52;3.95;;;3.65;;
24357;SDS011;13668;52.154;5.580;2022-07-23T03:14:18;4.13;;;3.72;;
24357;SDS011;13668;52.154;5.580;2022-07-23T03:16:44;3.58;;;3.28;;
24357;SDS011;13668;52.154;5.580;2022-07-23T03:19:10;3.90;;;3.60;;
24357;SDS011;13668;52.154;5.580;2022-07-23T03:21:36;3.97;;;3.67;;
24357;SDS011;13668;52.154;5.580;2022-07-23T03:24:05;4.03;;;3.72;;
24357;SDS011;13668;52.154;5.580;2022-07-23T03:26:31;4.00;;;3.60;;
24357;SDS011;13668;52.154;5.580;2022-07-23T03:28:57;4.13;;;3.72;;
24357;SDS011;13668;52.154;5.580;2022-07-23T03:31:23;3.72;;;3.45;;
24357;SDS011;13668;52.154;5.580;2022-07-23T03:33:49;3.97;;;3.50;;
24357;SDS011;13668;52.154;5.580;2022-07-23T03:36:15;4.93;;;4.25;;
24357;SDS011;13668;52.154;5.580;2022-07-23T03:38:41;3.80;;;3.50;;
24357;SDS011;13668;52.154;5.580;2022-07-23T03:41:06;5.63;;;3.63;;
24357;SDS011;13668;52.154;5.580;2022-07-23T03:43:33;4.00;;;3.60;;
24357;SDS011;13668;52.154;5.580;2022-07-23T03:45:59;4.05;;;3.65;;
24357;SDS011;13668;52.154;5.580;2022-07-23T03:48:24;3.58;;;3.28;;
24357;SDS011;13668;52.154;5.580;2022-07-23T03:50:50;5.97;;;3.78;;
24357;SDS011;13668;52.154;5.580;2022-07-23T03:53:16;5.10;;;3.45;;
24357;SDS011;13668;52.154;5.580;2022-07-23T03:55:42;4.32;;;3.53;;
24357;SDS011;13668;52.154;5.580;2022-07-23T03:58:08;5.20;;;4.57;;
24357;SDS011;13668;52.154;5.580;2022-07-23T04:00:34;4.28;;;3.88;;
24357;SDS011;13668;52.154;5.580;2022-07-23T04:03:00;4.05;;;3.67;;
24357;SDS011;13668;52.154;5.580;2022-07-23T04:05:26;6.38;;;3.95;;
24357;SDS011;13668;52.154;5.580;2022-07-23T04:07:52;7.00;;;3.53;;
24357;SDS011;13668;52.154;5.580;2022-07-23T04:10:18;6.88;;;3.45;;
24357;SDS011;13668;52.154;5.580;2022-07-23T04:12:45;5.10;;;3.63;;
24357;SDS011;13668;52.154;5.580;2022-07-23T04:15:11;4.30;;;3.35;;
24357;SDS011;13668;52.154;5.580;2022-07-23T04:17:36;3.65;;;3.33;;
24357;SDS011;13668;52.154;5.580;2022-07-23T04:20:03;8.05;;;3.67;;
24357;SDS011;13668;52.154;5.580;2022-07-23T04:22:29;5.47;;;4.05;;
24357;SDS011;13668;52.154;5.580;2022-07-23T04:24:55;5.50;;;4.00;;
24357;SDS011;13668;52.154;5.580;2022-07-23T04:27:21;5.75;;;3.55;;
24357;SDS011;13668;52.154;5.580;2022-07-23T04:29:47;3.95;;;3.65;;
24357;SDS011;13668;52.154;5.580;2022-07-23T04:32:12;4.85;;;3.53;;
24357;SDS011;13668;52.154;5.580;2022-07-23T04:34:38;4.88;;;3.60;;
24357;SDS011;13668;52.154;5.580;2022-07-23T04:37:04;3.75;;;3.45;;
24357;SDS011;13668;52.154;5.580;2022-07-23T04:39:33;4.38;;;3.63;;
24357;SDS011;13668;52.154;5.580;2022-07-23T04:41:59;3.72;;;3.42;;
24357;SDS011;13668;52.154;5.580;2022-07-23T04:44:25;4.93;;;4.47;;
24357;SDS011;13668;52.154;5.580;2022-07-23T04:46:51;4.10;;;3.53;;
24357;SDS011;13668;52.154;5.580;2022-07-23T04:49:17;3.50;;;3.20;;
24357;SDS011;13668;52.154;5.580;2022-07-23T04:51:43;4.38;;;3.45;;
24357;SDS011;13668;52.154;5.580;2022-07-23T04:54:09;4.32;;;3.92;;
24357;SDS011;13668;52.154;5.580;2022-07-23T04:56:35;4.45;;;3.58;;
24357;SDS011;13668;52.154;5.580;2022-07-23T04:59:01;4.22;;;3.83;;
24357;SDS011;13668;52.154;5.580;2022-07-23T05:01:33;4.65;;;3.88;;
24357;SDS011;13668;52.154;5.580;2022-07-23T05:03:59;8.18;;;4.28;;
24357;SDS011;13668;52.154;5.580;2022-07-23T05:06:42;11.93;;;4.03;;
24357;SDS011;13668;52.154;5.580;2022-07-23T05:09:08;6.88;;;4.40;;
24357;SDS011;13668;52.154;5.580;2022-07-23T05:11:34;6.47;;;4.00;;
24357;SDS011;13668;52.154;5.580;2022-07-23T05:14:00;6.85;;;4.13;;
24357;SDS011;13668;52.154;5.580;2022-07-23T05:16:26;6.65;;;4.32;;
24357;SDS011;13668;52.154;5.580;2022-07-23T05:18:52;8.43;;;4.55;;
24357;SDS011;13668;52.154;5.580;2022-07-23T05:21:18;8.80;;;5.10;;
24357;SDS011;13668;52.154;5.580;2022-07-23T05:23:44;5.25;;;4.20;;
24357;SDS011;13668;52.154;5.580;2022-07-23T05:26:10;6.03;;;5.07;;
24357;SDS011;13668;52.154;5.580;2022-07-23T05:28:36;8.60;;;5.45;;
24357;SDS011;13668;52.154;5.580;2022-07-23T05:31:02;5.68;;;5.15;;
24357;SDS011;13668;52.154;5.580;2022-07-23T05:33:29;5.28;;;4.78;;
24357;SDS011;13668;52.154;5.580;2022-07-23T05:36:05;5.28;;;4.53;;
24357;SDS011;13668;52.154;5.580;2022-07-23T05:38:31;6.18;;;5.13;;
24357;SDS011;13668;52.154;5.580;2022-07-23T05:40:57;6.75;;;5.50;;
24357;SDS011;13668;52.154;5.580;2022-07-23T05:43:23;7.22;;;5.47;;
24357;SDS011;13668;52.154;5.580;2022-07-23T05:45:50;5.78;;;4.72;;
24357;SDS011;13668;52.154;5.580;2022-07-23T05:48:16;5.38;;;4.88;;
24357;SDS011;13668;52.154;5.580;2022-07-23T05:50:42;5.45;;;4.47;;
24357;SDS011;13668;52.154;5.580;2022-07-23T05:53:08;4.55;;;4.15;;
24357;SDS011;13668;52.154;5.580;2022-07-23T05:55:34;5.20;;;4.68;;
24357;SDS011;13668;52.154;5.580;2022-07-23T05:58:00;4.85;;;4.30;;
24357;SDS011;13668;52.154;5.580;2022-07-23T06:00:26;4.28;;;3.88;;
24357;SDS011;13668;52.154;5.580;2022-07-23T06:02:52;5.20;;;4.70;;
24357;SDS011;13668;52.154;5.580;2022-07-23T06:05:18;4.57;;;4.13;;
24357;SDS011;13668;52.154;5.580;2022-07-23T06:07:45;4.50;;;4.05;;
24357;SDS011;13668;52.154;5.580;2022-07-23T06:10:11;5.13;;;4.72;;
24357;SDS011;13668;52.154;5.580;2022-07-23T06:12:37;7.63;;;4.03;;
24357;SDS011;13668;52.154;5.580;2022-07-23T06:15:03;4.65;;;3.78;;
24357;SDS011;13668;52.154;5.580;2022-07-23T06:17:29;5.07;;;3.90;;
24357;SDS011;13668;52.154;5.580;2022-07-23T06:19:55;3.97;;;3.60;;
24357;SDS011;13668;52.154;5.580;2022-07-23T06:22:21;6.82;;;3.55;;
24357;SDS011;13668;52.154;5.580;2022-07-23T06:24:48;5.40;;;3.40;;
24357;SDS011;13668;52.154;5.580;2022-07-23T06:27:14;2.83;;;2.53;;
24357;SDS011;13668;52.154;5.580;2022-07-23T06:29:40;5.07;;;3.25;;
24357;SDS011;13668;52.154;5.580;2022-07-23T06:32:06;3.10;;;2.75;;
24357;SDS011;13668;52.154;5.580;2022-07-23T06:34:32;4.05;;;3.33;;
24357;SDS011;13668;52.154;5.580;2022-07-23T06:36:59;6.45;;;3.58;;
24357;SDS011;13668;52.154;5.580;2022-07-23T06:39:25;5.22;;;3.28;;
24357;SDS011;13668;52.154;5.580;2022-07-23T06:41:51;3.58;;;2.97;;
24357;SDS011;13668;52.154;5.580;2022-07-23T06:44:17;3.75;;;3.30;;
24357;SDS011;13668;52.154;5.580;2022-07-23T06:46:43;4.00;;;3.47;;
24357;SDS011;13668;52.154;5.580;2022-07-23T06:49:09;3.30;;;3.00;;
24357;SDS011;13668;52.154;5.580;2022-07-23T06:51:35;4.85;;;3.00;;
24357;SDS011;13668;52.154;5.580;2022-07-23T06:54:01;3.78;;;3.03;;
24357;SDS011;13668;52.154;5.580;2022-07-23T06:56:27;4.60;;;3.33;;
24357;SDS011;13668;52.154;5.580;2022-07-23T06:58:53;4.68;;;2.97;;
24357;SDS011;13668;52.154;5.580;2022-07-23T07:01:19;3.10;;;2.40;;
24357;SDS011;13668;52.154;5.580;2022-07-23T07:03:46;3.90;;;2.78;;
24357;SDS011;13668;52.154;5.580;2022-07-23T07:06:13;3.70;;;2.40;;
24357;SDS011;13668;52.154;5.580;2022-07-23T07:08:40;3.35;;;2.25;;
24357;SDS011;13668;52.154;5.580;2022-07-23T07:11:06;2.63;;;2.30;;
24357;SDS011;13668;52.154;5.580;2022-07-23T07:13:33;2.72;;;2.10;;
24357;SDS011;13668;52.154;5.580;2022-07-23T07:15:59;3.92;;;2.10;;
24357;SDS011;13668;52.154;5.580;2022-07-23T07:18:25;4.95;;;1.92;;
24357;SDS011;13668;52.154;5.580;2022-07-23T07:20:51;2.20;;;1.90;;
24357;SDS011;13668;52.154;5.580;2022-07-23T07:23:17;2.78;;;1.80;;
24357;SDS011;13668;52.154;5.580;2022-07-23T07:25:43;2.33;;;1.48;;
24357;SDS011;13668;52.154;5.580;2022-07-23T07:28:09;2.40;;;1.90;;
24357;SDS011;13668;52.154;5.580;2022-07-23T07:30:35;2.65;;;1.80;;
24357;SDS011;13668;52.154;5.580;2022-07-23T07:33:01;1.77;;;1.63;;
24357;SDS011;13668;52.154;5.580;2022-07-23T07:35:27;2.88;;;1.60;;
24357;SDS011;13668;52.154;5.580;2022-07-23T07:37:53;2.70;;;1.77;;
24357;SDS011;13668;52.154;5.580;2022-07-23T07:40:19;4.68;;;1.70;;
24357;SDS011;13668;52.154;5.580;2022-07-23T07:42:50;3.67;;;1.85;;
24357;SDS011;13668;52.154;5.580;2022-07-23T07:45:16;3.35;;;2.10;;
24357;SDS011;13668;52.154;5.580;2022-07-23T07:47:43;2.65;;;1.50;;
24357;SDS011;13668;52.154;5.580;2022-07-23T07:50:09;2.97;;;1.83;;
24357;SDS011;13668;52.154;5.580;2022-07-23T07:52:35;1.65;;;1.50;;
24357;SDS011;13668;52.154;5.580;2022-07-23T07:55:02;1.80;;;1.70;;
24357;SDS011;13668;52.154;5.580;2022-07-23T07:57:28;2.33;;;1.98;;
24357;SDS011;13668;52.154;5.580;2022-07-23T07:59:54;2.42;;;2.22;;
24357;SDS011;13668;52.154;5.580;2022-07-23T08:02:20;3.53;;;1.73;;
24357;SDS011;13668;52.154;5.580;2022-07-23T08:04:46;2.05;;;1.48;;
24357;SDS011;13668;52.154;5.580;2022-07-23T08:07:13;1.63;;;1.40;;
24357;SDS011;13668;52.154;5.580;2022-07-23T08:09:39;2.63;;;1.20;;
24357;SDS011;13668;52.154;5.580;2022-07-23T08:12:05;1.50;;;1.40;;
24357;SDS011;13668;52.154;5.580;2022-07-23T08:14:31;1.70;;;1.10;;
24357;SDS011;13668;52.154;5.580;2022-07-23T08:16:57;2.78;;;1.83;;
24357;SDS011;13668;52.154;5.580;2022-07-23T08:19:23;1.95;;;1.77;;
24357;SDS011;13668;52.154;5.580;2022-07-23T08:21:49;2.63;;;1.85;;
24357;SDS011;13668;52.154;5.580;2022-07-23T08:24:15;7.65;;;1.30;;
24357;SDS011;13668;52.154;5.580;2022-07-23T08:26:41;2.60;;;1.52;;
24357;SDS011;13668;52.154;5.580;2022-07-23T08:29:07;3.13;;;1.30;;
24357;SDS011;13668;52.154;5.580;2022-07-23T08:31:33;2.97;;;1.05;;
24357;SDS011;13668;52.154;5.580;2022-07-23T08:33:59;1.02;;;0.73;;
24357;SDS011;13668;52.154;5.580;2022-07-23T08:36:27;3.63;;;0.73;;
24357;SDS011;13668;52.154;5.580;2022-07-23T08:38:54;2.00;;;0.68;;
24357;SDS011;13668;52.154;5.580;2022-07-23T08:41:20;1.27;;;0.77;;
24357;SDS011;13668;52.154;5.580;2022-07-23T08:43:46;1.13;;;0.60;;
24357;SDS011;13668;52.154;5.580;2022-07-23T08:46:12;0.80;;;0.65;;
24357;SDS011;13668;52.154;5.580;2022-07-23T08:48:38;1.23;;;0.82;;
24357;SDS011;13668;52.154;5.580;2022-07-23T08:51:05;2.15;;;0.75;;
24357;SDS011;13668;52.154;5.580;2022-07-23T08:53:32;2.17;;;0.75;;
24357;SDS011;13668;52.154;5.580;2022-07-23T08:55:59;3.22;;;0.73;;
24357;SDS011;13668;52.154;5.580;2022-07-23T08:58:26;1.48;;;0.77;;
24357;SDS011;13668;52.154;5.580;2022-07-23T09:00:55;4.75;;;0.70;;
24357;SDS011;13668;52.154;5.580;2022-07-23T09:03:23;0.77;;;0.50;;
24357;SDS011;13668;52.154;5.580;2022-07-23T09:05:49;0.80;;;0.70;;
24357;SDS011;13668;52.154;5.580;2022-07-23T09:08:16;2.75;;;0.85;;
24357;SDS011;13668;52.154;5.580;2022-07-23T09:15:55;1.23;;;0.68;;
24357;SDS011;13668;52.154;5.580;2022-07-23T09:18:31;2.13;;;0.70;;
24357;SDS011;13668;52.154;5.580;2022-07-23T09:21:07;0.77;;;0.60;;
24357;SDS011;13668;52.154;5.580;2022-07-23T09:23:36;1.15;;;0.75;;
24357;SDS011;13668;52.154;5.580;2022-07-23T09:26:03;3.30;;;1.00;;
24357;SDS011;13668;52.154;5.580;2022-07-23T09:28:53;1.77;;;0.77;;
24357;SDS011;13668;52.154;5.580;2022-07-23T09:31:19;0.82;;;0.80;;
24357;SDS011;13668;52.154;5.580;2022-07-23T09:33:45;0.73;;;0.70;;
24357;SDS011;13668;52.154;5.580;2022-07-23T09:36:11;1.08;;;0.82;;
24357;SDS011;13668;52.154;5.580;2022-07-23T09:38:47;1.45;;;0.73;;
24357;SDS011;13668;52.154;5.580;2022-07-23T09:41:13;1.55;;;0.80;;
24357;SDS011;13668;52.154;5.580;2022-07-23T09:43:39;1.75;;;0.90;;
24357;SDS011;13668;52.154;5.580;2022-07-23T09:46:21;0.80;;;0.70;;
24357;SDS011;13668;52.154;5.580;2022-07-23T09:48:50;1.92;;;0.68;;
24357;SDS011;13668;52.154;5.580;2022-07-23T09:51:17;1.88;;;0.95;;
24357;SDS011;13668;52.154;5.580;2022-07-23T09:54:01;1.63;;;0.75;;
24357;SDS011;13668;52.154;5.580;2022-07-23T09:56:34;1.95;;;0.55;;
24357;SDS011;13668;52.154;5.580;2022-07-23T09:59:00;1.35;;;0.40;;
24357;SDS011;13668;52.154;5.580;2022-07-23T10:01:29;1.55;;;0.60;;
24357;SDS011;13668;52.154;5.580;2022-07-23T10:03:55;0.95;;;0.50;;
24357;SDS011;13668;52.154;5.580;2022-07-23T10:06:21;0.70;;;0.57;;
24357;SDS011;13668;52.154;5.580;2022-07-23T10:08:47;1.42;;;0.73;;
24357;SDS011;13668;52.154;5.580;2022-07-23T10:11:14;1.77;;;0.90;;
24357;SDS011;13668;52.154;5.580;2022-07-23T10:13:40;2.00;;;0.95;;
24357;SDS011;13668;52.154;5.580;2022-07-23T10:16:18;2.47;;;0.57;;
24357;SDS011;13668;52.154;5.580;2022-07-23T10:18:44;2.55;;;1.50;;
24357;SDS011;13668;52.154;5.580;2022-07-23T10:21:10;1.85;;;0.95;;
24357;SDS011;13668;52.154;5.580;2022-07-23T10:23:39;0.70;;;0.52;;
24357;SDS011;13668;52.154;5.580;2022-07-23T10:31:26;1.77;;;0.82;;
24357;SDS011;13668;52.154;5.580;2022-07-23T10:33:56;2.67;;;0.70;;
24357;SDS011;13668;52.154;5.580;2022-07-23T10:36:32;1.25;;;1.15;;
24357;SDS011;13668;52.154;5.580;2022-07-23T10:39:06;1.35;;;1.10;;
24357;SDS011;13668;52.154;5.580;2022-07-23T10:41:38;1.17;;;0.95;;
24357;SDS011;13668;52.154;5.580;2022-07-23T10:44:05;1.63;;;1.05;;
24357;SDS011;13668;52.154;5.580;2022-07-23T10:46:32;1.70;;;1.20;;
24357;SDS011;13668;52.154;5.580;2022-07-23T10:49:46;1.15;;;1.00;;
24357;SDS011;13668;52.154;5.580;2022-07-23T10:54:31;1.35;;;1.10;;
24357;SDS011;13668;52.154;5.580;2022-07-23T10:59:23;0.80;;;0.70;;
24357;SDS011;13668;52.154;5.580;2022-07-23T11:01:49;1.85;;;0.80;;
24357;SDS011;13668;52.154;5.580;2022-07-23T11:04:16;2.17;;;1.33;;
24357;SDS011;13668;52.154;5.580;2022-07-23T11:09:26;3.40;;;0.98;;
24357;SDS011;13668;52.154;5.580;2022-07-23T11:17:22;2.35;;;1.10;;
24357;SDS011;13668;52.154;5.580;2022-07-23T11:25:10;1.98;;;1.10;;
24357;SDS011;13668;52.154;5.580;2022-07-23T11:27:40;0.93;;;0.93;;
24357;SDS011;13668;52.154;5.580;2022-07-23T11:30:07;1.10;;;1.00;;
24357;SDS011;13668;52.154;5.580;2022-07-23T11:32:34;1.10;;;0.95;;
24357;SDS011;13668;52.154;5.580;2022-07-23T11:35:03;2.05;;;1.25;;
24357;SDS011;13668;52.154;5.580;2022-07-23T11:37:43;1.45;;;1.10;;
24357;SDS011;13668;52.154;5.580;2022-07-23T11:40:11;1.17;;;1.08;;
24357;SDS011;13668;52.154;5.580;2022-07-23T11:45:19;2.20;;;1.02;;
24357;SDS011;13668;52.154;5.580;2022-07-23T11:47:45;1.45;;;1.13;;
24357;SDS011;13668;52.154;5.580;2022-07-23T11:50:11;3.65;;;1.10;;
24357;SDS011;13668;52.154;5.580;2022-07-23T11:52:38;4.65;;;1.20;;
24357;SDS011;13668;52.154;5.580;2022-07-23T11:55:05;3.00;;;1.20;;
24357;SDS011;13668;52.154;5.580;2022-07-23T11:57:33;1.40;;;1.00;;
24357;SDS011;13668;52.154;5.580;2022-07-23T12:00:21;1.63;;;1.10;;
24357;SDS011;13668;52.154;5.580;2022-07-23T12:02:46;1.00;;;1.00;;
24357;SDS011;13668;52.154;5.580;2022-07-23T12:05:17;1.20;;;1.05;;
24357;SDS011;13668;52.154;5.580;2022-07-23T12:07:43;1.10;;;1.00;;
24357;SDS011;13668;52.154;5.580;2022-07-23T12:10:29;1.58;;;1.10;;
24357;SDS011;13668;52.154;5.580;2022-07-23T12:12:57;2.40;;;1.40;;
24357;SDS011;13668;52.154;5.580;2022-07-23T12:15:45;1.23;;;1.13;;
24357;SDS011;13668;52.154;5.580;2022-07-23T12:18:11;1.92;;;1.35;;
24357;SDS011;13668;52.154;5.580;2022-07-23T12:20:38;2.45;;;1.20;;
24357;SDS011;13668;52.154;5.580;2022-07-23T12:23:05;3.08;;;1.30;;
24357;SDS011;13668;52.154;5.580;2022-07-23T12:25:33;2.13;;;1.33;;
24357;SDS011;13668;52.154;5.580;2022-07-23T12:28:32;1.30;;;1.20;;
24357;SDS011;13668;52.154;5.580;2022-07-23T12:30:55;1.55;;;1.10;;
24357;SDS011;13668;52.154;5.580;2022-07-23T12:33:23;1.75;;;1.35;;
24357;SDS011;13668;52.154;5.580;2022-07-23T12:35:49;2.22;;;1.40;;
24357;SDS011;13668;52.154;5.580;2022-07-23T12:38:19;2.30;;;1.20;;
24357;SDS011;13668;52.154;5.580;2022-07-23T12:40:46;1.70;;;1.30;;
24357;SDS011;13668;52.154;5.580;2022-07-23T12:43:29;2.45;;;1.45;;
24357;SDS011;13668;52.154;5.580;2022-07-23T12:46:00;1.65;;;1.50;;
24357;SDS011;13668;52.154;5.580;2022-07-23T12:55:46;1.40;;;1.17;;
24357;SDS011;13668;52.154;5.580;2022-07-23T12:58:16;1.23;;;1.13;;
24357;SDS011;13668;52.154;5.580;2022-07-23T13:00:50;1.52;;;0.95;;
24357;SDS011;13668;52.154;5.580;2022-07-23T13:06:01;1.35;;;0.98;;
24357;SDS011;13668;52.154;5.580;2022-07-23T13:08:28;1.58;;;1.45;;
24357;SDS011;13668;52.154;5.580;2022-07-23T13:10:55;2.78;;;1.02;;
24357;SDS011;13668;52.154;5.580;2022-07-23T13:13:22;1.55;;;1.30;;
24357;SDS011;13668;52.154;5.580;2022-07-23T13:15:48;2.10;;;1.48;;
24357;SDS011;13668;52.154;5.580;2022-07-23T13:18:14;3.33;;;1.20;;
24357;SDS011;13668;52.154;5.580;2022-07-23T13:20:41;2.35;;;1.15;;
24357;SDS011;13668;52.154;5.580;2022-07-23T13:23:07;1.65;;;1.23;;
24357;SDS011;13668;52.154;5.580;2022-07-23T13:25:33;2.42;;;1.58;;
24357;SDS011;13668;52.154;5.580;2022-07-23T13:28:00;4.10;;;1.40;;
24357;SDS011;13668;52.154;5.580;2022-07-23T13:30:26;4.43;;;1.45;;
24357;SDS011;13668;52.154;5.580;2022-07-23T13:32:52;2.70;;;1.40;;
24357;SDS011;13668;52.154;5.580;2022-07-23T13:35:18;2.05;;;1.38;;
24357;SDS011;13668;52.154;5.580;2022-07-23T13:37:44;4.35;;;1.33;;
24357;SDS011;13668;52.154;5.580;2022-07-23T13:40:10;1.35;;;1.20;;
24357;SDS011;13668;52.154;5.580;2022-07-23T13:42:36;1.15;;;1.00;;
24357;SDS011;13668;52.154;5.580;2022-07-23T13:45:03;2.13;;;1.52;;
24357;SDS011;13668;52.154;5.580;2022-07-23T13:47:29;1.55;;;1.25;;
24357;SDS011;13668;52.154;5.580;2022-07-23T13:49:55;3.28;;;1.30;;
24357;SDS011;13668;52.154;5.580;2022-07-23T13:52:21;1.60;;;1.23;;
24357;SDS011;13668;52.154;5.580;2022-07-23T13:54:47;4.07;;;1.35;;
24357;SDS011;13668;52.154;5.580;2022-07-23T13:57:13;2.42;;;1.27;;
24357;SDS011;13668;52.154;5.580;2022-07-23T13:59:39;2.95;;;1.30;;
24357;SDS011;13668;52.154;5.580;2022-07-23T14:02:05;1.92;;;1.73;;
24357;SDS011;13668;52.154;5.580;2022-07-23T14:04:32;2.65;;;1.45;;
24357;SDS011;13668;52.154;5.580;2022-07-23T14:06:58;2.00;;;1.27;;
24357;SDS011;13668;52.154;5.580;2022-07-23T14:09:24;1.60;;;1.20;;
24357;SDS011;13668;52.154;5.580;2022-07-23T14:11:50;1.25;;;1.15;;
24357;SDS011;13668;52.154;5.580;2022-07-23T14:14:16;3.10;;;1.60;;
24357;SDS011;13668;52.154;5.580;2022-07-23T14:16:43;1.40;;;1.30;;
24357;SDS011;13668;52.154;5.580;2022-07-23T14:19:09;1.42;;;1.23;;
24357;SDS011;13668;52.154;5.580;2022-07-23T14:21:35;2.00;;;1.45;;
24357;SDS011;13668;52.154;5.580;2022-07-23T14:24:01;2.13;;;1.60;;
24357;SDS011;13668;52.154;5.580;2022-07-23T14:26:27;2.40;;;1.30;;
24357;SDS011;13668;52.154;5.580;2022-07-23T14:28:53;2.45;;;1.45;;
24357;SDS011;13668;52.154;5.580;2022-07-23T14:31:19;2.65;;;1.35;;
24357;SDS011;13668;52.154;5.580;2022-07-23T14:33:45;2.05;;;1.80;;
24357;SDS011;13668;52.154;5.580;2022-07-23T14:36:11;1.60;;;1.20;;
24357;SDS011;13668;52.154;5.580;2022-07-23T14:38:37;2.35;;;1.55;;
24357;SDS011;13668;52.154;5.580;2022-07-23T14:41:03;1.48;;;1.35;;
24357;SDS011;13668;52.154;5.580;2022-07-23T14:43:31;1.75;;;1.20;;
24357;SDS011;13668;52.154;5.580;2022-07-23T14:45:59;1.98;;;1.20;;
24357;SDS011;13668;52.154;5.580;2022-07-23T14:48:26;3.60;;;1.73;;
24357;SDS011;13668;52.154;5.580;2022-07-23T14:50:52;2.08;;;1.45;;
24357;SDS011;13668;52.154;5.580;2022-07-23T14:53:18;3.10;;;1.45;;
24357;SDS011;13668;52.154;5.580;2022-07-23T14:55:44;2.65;;;1.40;;
24357;SDS011;13668;52.154;5.580;2022-07-23T14:58:10;2.35;;;1.67;;
24357;SDS011;13668;52.154;5.580;2022-07-23T15:00:36;2.90;;;1.48;;
24357;SDS011;13668;52.154;5.580;2022-07-23T15:03:02;3.25;;;1.60;;
24357;SDS011;13668;52.154;5.580;2022-07-23T15:05:28;1.40;;;1.30;;
24357;SDS011;13668;52.154;5.580;2022-07-23T15:07:55;1.52;;;1.42;;
24357;SDS011;13668;52.154;5.580;2022-07-23T15:10:21;1.85;;;1.67;;
24357;SDS011;13668;52.154;5.580;2022-07-23T15:12:47;2.10;;;1.35;;
24357;SDS011;13668;52.154;5.580;2022-07-23T15:15:13;2.42;;;2.20;;
24357;SDS011;13668;52.154;5.580;2022-07-23T15:17:39;3.08;;;1.67;;
24357;SDS011;13668;52.154;5.580;2022-07-23T15:20:05;37.15;;;23.35;;
24357;SDS011;13668;52.154;5.580;2022-07-23T15:22:31;23.05;;;17.42;;
24357;SDS011;13668;52.154;5.580;2022-07-23T15:24:57;4.00;;;3.38;;
24357;SDS011;13668;52.154;5.580;2022-07-23T15:27:24;6.97;;;5.50;;
24357;SDS011;13668;52.154;5.580;2022-07-23T15:29:50;9.13;;;6.53;;